createdAt,value
2022-11-16T00:02:13.392Z,99460.34
2022-11-16T00:04:40.789Z,99449.91
2022-11-16T00:07:08.663Z,99443.48
2022-11-16T00:09:35.980Z,99439.35
2022-11-16T00:12:06.403Z,99437.81
2022-11-16T00:14:35.402Z,99443.00
2022-11-16T00:17:04.284Z,99445.08
2022-11-16T00:19:31.946Z,99448.81
2022-11-16T00:21:59.498Z,99447.00
2022-11-16T00:24:26.801Z,99444.34
2022-11-16T00:26:56.604Z,99440.53
2022-11-16T00:29:25.642Z,99436.29
2022-11-16T00:31:54.560Z,99436.16
2022-11-16T00:34:23.004Z,99433.46
2022-11-16T00:36:50.798Z,99426.03
2022-11-16T00:39:18.986Z,99421.84
2022-11-16T00:41:47.263Z,99415.30
2022-11-16T00:44:16.180Z,99409.20
2022-11-16T00:46:43.608Z,99405.52
2022-11-16T00:49:10.861Z,99404.30
2022-11-16T00:51:38.703Z,99403.41
2022-11-16T00:54:09.145Z,99402.86
2022-11-16T00:56:37.509Z,99404.02
2022-11-16T00:59:05.455Z,99407.05
2022-11-16T01:01:35.097Z,99407.58
2022-11-16T01:04:02.440Z,99404.60
2022-11-16T01:06:29.500Z,99404.50
2022-11-16T01:08:56.744Z,99403.96
2022-11-16T01:11:43.140Z,99405.88
2022-11-16T01:14:10.336Z,99409.77
2022-11-16T01:16:38.404Z,99408.55
2022-11-16T01:19:06.313Z,99406.32
2022-11-16T01:21:34.221Z,99405.42
2022-11-16T01:24:01.658Z,99404.89
2022-11-16T01:26:28.898Z,99395.97
2022-11-16T01:28:56.048Z,99393.69
2022-11-16T01:31:24.741Z,99389.05
2022-11-16T01:33:52.400Z,99385.39
2022-11-16T01:36:26.099Z,99385.17
2022-11-16T01:38:54.382Z,99388.74
2022-11-16T01:41:26.041Z,99389.36
2022-11-16T01:44:07.452Z,99390.48
2022-11-16T01:46:39.802Z,99389.89
2022-11-16T01:49:12.897Z,99389.48
2022-11-16T01:51:42.909Z,99384.27
2022-11-16T01:54:13.435Z,99382.10
2022-11-16T01:56:51.296Z,99384.60
2022-11-16T01:59:41.200Z,99381.20
2022-11-16T02:02:14.698Z,99377.11
2022-11-16T02:04:42.494Z,99371.70
2022-11-16T02:07:58.970Z,99370.20
2022-11-16T02:10:51.109Z,99369.30
2022-11-16T02:13:29.850Z,99363.52
2022-11-16T02:16:20.750Z,99365.75
2022-11-16T02:19:11.130Z,99361.12
2022-11-16T02:21:45.585Z,99356.39
2022-11-16T02:24:48.347Z,99351.23
2022-11-16T02:27:26.026Z,99354.10
2022-11-16T02:29:54.928Z,99354.53
2022-11-16T02:33:00.991Z,99352.69
2022-11-16T02:35:35.307Z,99350.87
2022-11-16T02:38:13.437Z,99349.69
2022-11-16T02:40:44.978Z,99347.36
2022-11-16T02:43:20.788Z,99343.52
2022-11-16T02:45:50.637Z,99340.48
2022-11-16T02:48:25.430Z,99333.42
2022-11-16T02:50:53.324Z,99330.86
2022-11-16T02:53:22.416Z,99336.81
2022-11-16T02:55:50.389Z,99333.62
2022-11-16T02:58:22.367Z,99331.23
2022-11-16T03:01:13.574Z,99323.73
2022-11-16T03:03:50.360Z,99330.70
2022-11-16T03:06:21.611Z,99330.06
2022-11-16T03:09:17.813Z,99333.08
2022-11-16T03:12:03.196Z,99332.12
2022-11-16T03:14:42.569Z,99326.91
2022-11-16T03:17:29.329Z,99327.60
2022-11-16T03:20:08.494Z,99328.59
2022-11-16T03:22:40.527Z,99325.62
2022-11-16T03:25:09.014Z,99328.50
2022-11-16T03:27:45.368Z,99325.79
2022-11-16T03:30:23.541Z,99326.95
2022-11-16T03:33:03.238Z,99327.84
2022-11-16T03:35:44.537Z,99324.97
2022-11-16T03:38:13.208Z,99320.77
2022-11-16T03:40:43.433Z,99317.32
2022-11-16T03:43:11.095Z,99316.84
2022-11-16T03:45:40.382Z,99317.05
2022-11-16T03:48:08.234Z,99316.42
2022-11-16T03:50:35.712Z,99317.48
2022-11-16T03:53:03.405Z,99314.88
2022-11-16T03:55:30.938Z,99312.95
2022-11-16T03:57:58.909Z,99314.52
2022-11-16T04:00:29.051Z,99311.86
2022-11-16T04:02:56.474Z,99313.45
2022-11-16T04:05:46.227Z,99309.32
2022-11-16T04:08:38.268Z,99302.68
2022-11-16T04:11:29.584Z,99293.60
2022-11-16T04:14:15.492Z,99292.59
2022-11-16T04:17:01.667Z,99291.02
2022-11-16T04:19:47.967Z,99284.30
2022-11-16T04:22:38.668Z,99284.14
2022-11-16T04:25:15.353Z,99286.06
2022-11-16T04:28:01.203Z,99290.88
2022-11-16T04:30:48.858Z,99290.05
2022-11-16T04:33:34.874Z,99289.14
2022-11-16T04:36:22.127Z,99296.31
2022-11-16T04:38:49.854Z,99301.09
2022-11-16T04:41:45.452Z,99299.60
2022-11-16T04:44:13.539Z,99300.67
2022-11-16T04:46:59.939Z,99298.39
2022-11-16T04:49:27.928Z,99297.86
2022-11-16T04:51:56.479Z,99293.82
2022-11-16T04:54:23.837Z,99296.48
2022-11-16T04:56:51.077Z,99296.37
2022-11-16T04:59:18.234Z,99292.86
2022-11-16T05:02:05.738Z,99288.79
2022-11-16T05:04:33.114Z,99287.87
2022-11-16T05:07:02.903Z,99279.80
2022-11-16T05:09:30.594Z,99278.38
2022-11-16T05:11:58.098Z,99274.33
2022-11-16T05:14:25.799Z,99276.99
2022-11-16T05:16:55.008Z,99275.08
2022-11-16T05:19:41.119Z,99279.64
2022-11-16T05:22:08.293Z,99279.38
2022-11-16T05:24:35.818Z,99280.29
2022-11-16T05:27:09.319Z,99280.29
2022-11-16T05:29:36.962Z,99284.11
2022-11-16T05:32:05.754Z,99281.09
2022-11-16T05:34:33.514Z,99283.79
2022-11-16T05:37:01.491Z,99283.20
2022-11-16T05:39:29.875Z,99281.45
2022-11-16T05:41:57.755Z,99282.66
2022-11-16T05:44:25.293Z,99285.10
2022-11-16T05:46:54.015Z,99282.98
2022-11-16T05:49:21.335Z,99281.61
2022-11-16T05:51:49.115Z,99279.64
2022-11-16T05:54:22.195Z,99279.27
2022-11-16T05:56:50.379Z,99278.79
2022-11-16T05:59:19.784Z,99277.58
2022-11-16T06:01:48.266Z,99272.21
2022-11-16T06:04:16.615Z,99271.58
2022-11-16T06:06:44.075Z,99268.85
2022-11-16T06:09:12.878Z,99270.35
2022-11-16T06:11:40.516Z,99267.23
2022-11-16T06:14:11.582Z,99268.00
2022-11-16T06:16:39.427Z,99264.30
2022-11-16T06:19:08.435Z,99261.92
2022-11-16T06:21:36.615Z,99259.91
2022-11-16T06:24:11.376Z,99255.70
2022-11-16T06:26:38.695Z,99250.70
2022-11-16T06:29:07.149Z,99249.85
2022-11-16T06:31:34.907Z,99252.20
2022-11-16T06:34:02.892Z,99250.60
2022-11-16T06:36:30.675Z,99250.23
2022-11-16T06:39:01.335Z,99247.63
2022-11-16T06:41:29.560Z,99247.42
2022-11-16T06:43:57.439Z,99244.88
2022-11-16T06:46:29.000Z,99239.19
2022-11-16T06:48:57.676Z,99237.37
2022-11-16T06:51:26.575Z,99234.88
2022-11-16T06:53:54.012Z,99237.70
2022-11-16T06:56:21.772Z,99237.48
2022-11-16T06:58:53.697Z,99237.80
2022-11-16T07:01:21.341Z,99240.20
2022-11-16T07:03:49.470Z,99241.42
2022-11-16T07:06:17.651Z,99247.52
2022-11-16T07:08:45.710Z,99250.23
2022-11-16T07:11:14.912Z,99253.58
2022-11-16T07:13:42.053Z,99254.63
2022-11-16T07:16:11.682Z,99248.11
2022-11-16T07:18:43.262Z,99249.33
2022-11-16T07:21:14.431Z,99250.44
2022-11-16T07:23:43.354Z,99249.55
2022-11-16T07:26:12.045Z,99251.08
2022-11-16T07:28:48.238Z,99251.97
2022-11-16T07:31:17.714Z,99253.14
2022-11-16T07:33:45.981Z,99246.98
2022-11-16T07:36:31.865Z,99243.48
2022-11-16T07:38:59.432Z,99239.64
2022-11-16T07:41:27.504Z,99237.84
2022-11-16T07:44:12.240Z,99235.66
2022-11-16T07:46:47.622Z,99232.57
2022-11-16T07:49:17.722Z,99237.20
2022-11-16T07:51:53.755Z,99238.63
2022-11-16T07:54:48.577Z,99240.80
2022-11-16T07:57:16.343Z,99243.29
2022-11-16T07:59:43.999Z,99242.40
2022-11-16T08:02:12.211Z,99241.11
2022-11-16T08:04:40.462Z,99240.73
2022-11-16T08:07:09.467Z,99238.83
2022-11-16T08:09:43.647Z,99236.27
2022-11-16T08:12:14.849Z,99238.13
2022-11-16T08:14:43.408Z,99240.52
2022-11-16T08:17:12.377Z,99242.39
2022-11-16T08:19:42.799Z,99241.31
2022-11-16T08:22:11.591Z,99238.23
2022-11-16T08:24:39.147Z,99240.09
2022-11-16T08:27:06.911Z,99245.36
2022-11-16T08:29:35.086Z,99247.40
2022-11-16T08:32:04.480Z,99249.42
2022-11-16T08:34:34.611Z,99251.80
2022-11-16T08:37:01.958Z,99254.66
2022-11-16T08:39:38.024Z,99257.00
2022-11-16T08:42:05.421Z,99260.30
2022-11-16T08:44:32.850Z,99258.11
2022-11-16T08:47:02.964Z,99259.13
2022-11-16T08:49:37.992Z,99260.60
2022-11-16T08:52:07.138Z,99259.42
2022-11-16T08:54:35.491Z,99262.71
2022-11-16T08:57:02.713Z,99261.90
2022-11-16T08:59:31.709Z,99261.86
2022-11-16T09:02:02.980Z,99259.07
2022-11-16T09:04:35.642Z,99261.69
2022-11-16T09:07:04.519Z,99260.30
2022-11-16T09:09:31.872Z,99261.63
2022-11-16T09:11:59.125Z,99266.94
2022-11-16T09:14:29.258Z,99273.36
2022-11-16T09:16:56.485Z,99279.90
2022-11-16T09:19:24.660Z,99281.23
2022-11-16T09:21:52.015Z,99279.98
2022-11-16T09:24:20.708Z,99280.91
2022-11-16T09:26:48.769Z,99284.05
2022-11-16T09:29:16.542Z,99281.13
2022-11-16T09:31:44.822Z,99280.44
2022-11-16T09:34:13.196Z,99277.58
2022-11-16T09:36:40.351Z,99276.45
2022-11-16T09:39:29.576Z,99276.02
2022-11-16T09:42:26.556Z,99277.56
2022-11-16T09:45:13.568Z,99277.55
2022-11-16T09:47:43.589Z,99273.52
2022-11-16T09:50:27.552Z,99265.29
2022-11-16T09:52:58.733Z,99262.79
2022-11-16T09:55:57.055Z,99261.77
2022-11-16T09:58:53.608Z,99260.02
2022-11-16T10:01:29.855Z,99255.71
2022-11-16T10:04:14.392Z,99252.16
2022-11-16T10:06:56.950Z,99245.88
2022-11-16T10:09:24.689Z,99235.80
2022-11-16T10:12:24.294Z,99236.01
2022-11-16T10:15:13.360Z,99235.91
2022-11-16T10:17:47.072Z,99233.79
2022-11-16T10:20:44.828Z,99228.48
2022-11-16T10:23:37.241Z,99227.55
2022-11-16T10:26:24.402Z,99225.95
2022-11-16T10:29:18.502Z,99221.81
2022-11-16T10:31:56.240Z,99214.38
2022-11-16T10:34:26.506Z,99210.41
2022-11-16T10:36:58.862Z,99206.63
2022-11-16T10:39:27.865Z,99209.89
2022-11-16T10:41:56.332Z,99216.38
2022-11-16T10:44:34.361Z,99214.73
2022-11-16T10:47:18.395Z,99213.72
2022-11-16T10:49:56.593Z,99213.66
2022-11-16T10:52:24.369Z,99215.62
2022-11-16T10:54:52.474Z,99215.84
2022-11-16T10:57:20.200Z,99215.37
2022-11-16T10:59:50.461Z,99214.40
2022-11-16T11:02:23.821Z,99211.29
2022-11-16T11:05:17.580Z,99204.17
2022-11-16T11:07:59.962Z,99204.50
2022-11-16T11:11:23.191Z,99207.50
2022-11-16T11:14:13.445Z,99205.02
2022-11-16T11:16:41.915Z,99201.23
2022-11-16T11:19:20.328Z,99198.16
2022-11-16T11:21:47.899Z,99194.06
2022-11-16T11:27:06.390Z,99193.13
2022-11-16T11:29:37.914Z,99192.75
2022-11-16T11:32:19.451Z,99195.55
2022-11-16T11:34:55.334Z,99195.94
2022-11-16T11:37:26.656Z,99194.93
2022-11-16T11:40:23.539Z,99192.06
2022-11-16T11:42:59.940Z,99190.14
2022-11-16T11:45:50.189Z,99190.83
2022-11-16T11:48:37.341Z,99192.68
2022-11-16T11:51:15.861Z,99189.11
2022-11-16T11:53:47.719Z,99189.48
2022-11-16T11:56:15.584Z,99192.52
2022-11-16T11:58:43.537Z,99191.50
2022-11-16T12:01:39.978Z,99186.30
2022-11-16T12:04:29.035Z,99177.17
2022-11-16T12:07:11.211Z,99172.55
2022-11-16T12:09:53.240Z,99163.21
2022-11-16T12:12:24.476Z,99163.98
2022-11-16T12:15:00.642Z,99161.92
2022-11-16T12:17:49.718Z,99158.69
2022-11-16T12:20:37.236Z,99155.02
2022-11-16T12:23:15.135Z,99147.38
2022-11-16T12:26:11.266Z,99149.93
2022-11-16T12:29:03.924Z,99144.58
2022-11-16T12:31:46.621Z,99143.59
2022-11-16T12:34:50.040Z,99151.08
2022-11-16T12:37:41.145Z,99152.71
2022-11-16T12:40:53.648Z,99151.23
2022-11-16T12:43:28.568Z,99158.20
2022-11-16T12:46:12.122Z,99161.48
2022-11-16T12:49:05.581Z,99162.77
2022-11-16T12:51:45.546Z,99158.15
2022-11-16T12:54:57.923Z,99156.66
2022-11-16T12:57:29.282Z,99155.91
2022-11-16T13:00:09.393Z,99148.34
2022-11-16T13:02:55.710Z,99141.75
2022-11-16T13:05:32.205Z,99134.42
2022-11-16T13:08:31.021Z,99135.27
2022-11-16T13:11:26.408Z,99138.19
2022-11-16T13:14:01.960Z,99139.30
2022-11-16T13:16:29.925Z,99142.96
2022-11-16T13:18:58.917Z,99145.98
2022-11-16T13:21:55.987Z,99147.80
2022-11-16T13:24:32.435Z,99152.52
2022-11-16T13:27:07.371Z,99152.58
2022-11-16T13:29:38.317Z,99154.97
2022-11-16T13:32:40.573Z,99159.12
2022-11-16T13:35:16.870Z,99168.17
2022-11-16T13:37:49.998Z,99168.81
2022-11-16T13:40:32.340Z,99170.36
2022-11-16T13:43:32.868Z,99166.42
2022-11-16T13:46:04.744Z,99165.52
2022-11-16T13:48:35.872Z,99169.41
2022-11-16T13:51:05.609Z,99166.36
2022-11-16T13:56:29.074Z,99166.48
2022-11-16T13:58:57.581Z,99170.35
2022-11-16T14:01:26.881Z,99167.54
2022-11-16T14:04:32.974Z,99166.14
2022-11-16T14:07:00.778Z,99164.23
2022-11-16T14:09:49.313Z,99161.78
2022-11-16T14:12:38.616Z,99156.22
2022-11-16T14:15:17.337Z,99152.20
2022-11-16T14:18:01.979Z,99148.25
2022-11-16T14:20:35.483Z,99148.09
2022-11-16T14:23:29.549Z,99147.30
2022-11-16T14:26:02.812Z,99149.09
2022-11-16T14:28:45.768Z,99149.22
2022-11-16T14:31:13.111Z,99144.44
2022-11-16T14:33:40.570Z,99142.32
2022-11-16T14:36:09.282Z,99142.95
2022-11-16T14:38:44.368Z,99139.83
2022-11-16T14:41:25.938Z,99134.15
2022-11-16T14:43:56.710Z,99138.55
2022-11-16T14:46:28.880Z,99136.16
2022-11-16T14:48:57.883Z,99135.95
2022-11-16T14:51:30.254Z,99138.29
2022-11-16T14:54:02.016Z,99138.83
2022-11-16T14:56:29.455Z,99138.73
2022-11-16T14:58:58.313Z,99136.48
2022-11-16T15:01:30.912Z,99132.62
2022-11-16T15:04:02.675Z,99132.19
2022-11-16T15:06:36.102Z,99134.52
2022-11-16T15:09:05.288Z,99132.02
2022-11-16T15:11:55.684Z,99133.36
2022-11-16T15:14:28.387Z,99134.11
2022-11-16T15:16:57.876Z,99137.34
2022-11-16T15:19:26.010Z,99133.81
2022-11-16T15:21:54.789Z,99133.02
2022-11-16T15:24:32.543Z,99136.27
2022-11-16T15:27:14.723Z,99134.62
2022-11-16T15:29:41.976Z,99133.92
2022-11-16T15:32:15.531Z,99130.13
2022-11-16T15:34:43.249Z,99129.38
2022-11-16T15:37:12.765Z,99123.11
2022-11-16T15:39:40.719Z,99123.13
2022-11-16T15:42:17.089Z,99126.58
2022-11-16T15:44:44.840Z,99127.60
2022-11-16T15:47:14.847Z,99127.11
2022-11-16T15:49:44.297Z,99124.09
2022-11-16T15:52:12.739Z,99124.79
2022-11-16T15:54:58.414Z,99124.79
2022-11-16T15:57:26.902Z,99128.50
2022-11-16T15:59:56.198Z,99126.06
2022-11-16T16:02:27.806Z,99126.13
2022-11-16T16:04:54.899Z,99124.33
2022-11-16T16:07:44.575Z,99124.85
2022-11-16T16:10:32.418Z,99121.61
2022-11-16T16:13:01.217Z,99123.36
2022-11-16T16:15:30.724Z,99125.02
2022-11-16T16:17:59.587Z,99122.64
2022-11-16T16:20:30.510Z,99122.27
2022-11-16T16:23:28.717Z,99121.93
2022-11-16T16:25:56.167Z,99123.10
2022-11-16T16:28:23.520Z,99125.39
2022-11-16T16:30:55.357Z,99122.27
2022-11-16T16:33:26.501Z,99128.48
2022-11-16T16:35:54.205Z,99122.85
2022-11-16T16:38:21.441Z,99120.98
2022-11-16T16:40:50.435Z,99124.88
2022-11-16T16:43:19.461Z,99125.77
2022-11-16T16:45:47.305Z,99126.25
2022-11-16T16:48:14.846Z,99127.80
2022-11-16T16:50:46.601Z,99127.85
2022-11-16T16:53:14.775Z,99128.02
2022-11-16T16:55:43.584Z,99126.74
2022-11-16T16:58:13.738Z,99131.10
2022-11-16T17:00:41.823Z,99131.09
2022-11-16T17:03:09.229Z,99129.88
2022-11-16T17:05:37.797Z,99130.13
2022-11-16T17:08:05.569Z,99130.66
2022-11-16T17:10:33.944Z,99128.84
2022-11-16T17:13:05.306Z,99127.59
2022-11-16T17:15:33.016Z,99125.89
2022-11-16T17:18:02.365Z,99118.41
2022-11-16T17:20:30.110Z,99115.83
2022-11-16T17:22:59.260Z,99115.92
2022-11-16T17:30:58.299Z,99118.98
2022-11-16T17:33:27.683Z,99124.79
2022-11-16T17:36:01.153Z,99126.91
2022-11-16T17:38:35.262Z,99131.45
2022-11-16T17:41:18.875Z,99135.72
2022-11-16T17:43:58.095Z,99140.05
2022-11-16T17:46:27.314Z,99138.79
2022-11-16T17:48:59.798Z,99141.77
2022-11-16T17:51:30.849Z,99139.27
2022-11-16T17:54:00.875Z,99143.50
2022-11-16T17:56:39.193Z,99147.11
2022-11-16T17:59:07.425Z,99143.29
2022-11-16T18:01:35.715Z,99141.64
2022-11-16T18:04:04.512Z,99142.28
2022-11-16T18:06:35.368Z,99143.43
2022-11-16T18:09:04.906Z,99143.88
2022-11-16T18:11:37.743Z,99146.67
2022-11-16T18:14:11.159Z,99147.58
2022-11-16T18:16:43.698Z,99148.32
2022-11-16T18:19:16.983Z,99142.05
2022-11-16T18:21:51.753Z,99141.80
2022-11-16T18:24:31.887Z,99139.88
2022-11-16T18:27:04.291Z,99144.86
2022-11-16T18:29:33.240Z,99138.98
2022-11-16T18:32:01.307Z,99140.73
2022-11-16T18:34:29.463Z,99141.21
2022-11-16T18:36:56.740Z,99138.87
2022-11-16T18:39:24.691Z,99135.21
2022-11-16T18:41:55.427Z,99128.48
2022-11-16T18:44:23.305Z,99126.67
2022-11-16T18:46:50.544Z,99134.16
2022-11-16T18:49:20.441Z,99135.65
2022-11-16T18:51:48.640Z,99137.60
2022-11-16T18:54:16.823Z,99130.92
2022-11-16T18:56:49.381Z,99120.80
2022-11-16T18:59:16.740Z,99118.48
2022-11-16T19:01:44.482Z,99127.11
2022-11-16T19:04:12.479Z,99128.54
2022-11-16T19:06:42.082Z,99129.81
2022-11-16T19:09:10.731Z,99123.34
2022-11-16T19:11:38.118Z,99122.17
2022-11-16T19:14:06.401Z,99115.44
2022-11-16T19:16:35.100Z,99114.91
2022-11-16T19:19:02.949Z,99113.91
2022-11-16T19:21:30.882Z,99109.81
2022-11-16T19:23:59.169Z,99106.85
2022-11-16T19:26:28.559Z,99104.14
2022-11-16T19:28:56.840Z,99106.28
2022-11-16T19:31:30.695Z,99109.56
2022-11-16T19:34:04.101Z,99115.76
2022-11-16T19:36:33.857Z,99119.72
2022-11-16T19:39:02.484Z,99123.60
2022-11-16T19:41:31.654Z,99129.48
2022-11-16T19:44:00.590Z,99132.23
2022-11-16T19:46:33.336Z,99132.23
2022-11-16T19:49:00.995Z,99134.23
2022-11-16T19:51:30.119Z,99131.21
2022-11-16T19:53:59.087Z,99133.45
2022-11-16T19:56:30.121Z,99124.86
2022-11-16T19:59:00.043Z,99126.61
2022-11-16T20:01:30.034Z,99125.75
2022-11-16T20:04:00.093Z,99121.35
2022-11-16T20:06:36.680Z,99122.63
2022-11-16T20:09:12.280Z,99116.05
2022-11-16T20:11:42.132Z,99118.28
2022-11-16T20:14:12.376Z,99121.73
2022-11-16T20:16:43.080Z,99117.73
2022-11-16T20:19:11.737Z,99112.91
2022-11-16T20:21:42.378Z,99116.89
2022-11-16T20:24:19.344Z,99118.53
2022-11-16T20:26:49.183Z,99121.97
2022-11-16T20:29:19.099Z,99126.27
2022-11-16T20:31:47.738Z,99118.90
2022-11-16T20:34:17.995Z,99122.08
2022-11-16T20:36:47.908Z,99115.93
2022-11-16T20:39:19.431Z,99115.72
2022-11-16T20:41:49.487Z,99122.98
2022-11-16T20:44:22.965Z,99124.48
2022-11-16T20:46:54.316Z,99124.16
2022-11-16T20:49:22.995Z,99124.16
2022-11-16T20:51:52.829Z,99128.60
2022-11-16T20:54:21.038Z,99124.92
2022-11-16T20:56:51.833Z,99126.95
2022-11-16T20:59:19.682Z,99125.94
2022-11-16T21:01:50.244Z,99127.06
2022-11-16T21:04:18.297Z,99127.43
2022-11-16T21:06:47.371Z,99128.23
2022-11-16T21:09:24.049Z,99128.86
2022-11-16T21:12:09.944Z,99124.82
2022-11-16T21:14:37.204Z,99121.11
2022-11-16T21:17:04.648Z,99121.33
2022-11-16T21:19:31.918Z,99119.56
2022-11-16T21:21:59.663Z,99119.41
2022-11-16T21:24:29.166Z,99123.07
2022-11-16T21:26:56.535Z,99126.24
2022-11-16T21:29:26.515Z,99129.20
2022-11-16T21:31:53.822Z,99128.60
2022-11-16T21:34:21.057Z,99125.31
2022-11-16T21:36:48.913Z,99123.98
2022-11-16T21:39:16.063Z,99120.31
2022-11-16T21:41:43.317Z,99119.59
2022-11-16T21:44:11.595Z,99119.32
2022-11-16T21:46:39.348Z,99118.61
2022-11-16T21:49:07.956Z,99122.70
2022-11-16T21:51:35.402Z,99127.23
2022-11-16T21:54:03.061Z,99129.79
2022-11-16T21:56:30.317Z,99125.70
2022-11-16T21:58:58.719Z,99127.81
2022-11-16T22:01:46.047Z,99132.27
2022-11-16T22:04:32.231Z,99133.05
2022-11-16T22:07:19.084Z,99130.30
2022-11-16T22:09:46.379Z,99134.02
2022-11-16T22:12:13.611Z,99137.51
2022-11-16T22:14:40.975Z,99138.82
2022-11-16T22:17:10.690Z,99140.46
2022-11-16T22:19:38.033Z,99138.19
2022-11-16T22:22:05.182Z,99135.05
2022-11-16T22:24:33.761Z,99134.80
2022-11-16T22:27:00.916Z,99132.14
2022-11-16T22:29:28.086Z,99135.78
2022-11-16T22:31:55.516Z,99136.59
2022-11-16T22:34:22.778Z,99138.02
2022-11-16T22:36:49.823Z,99138.27
2022-11-16T22:39:21.702Z,99146.90
2022-11-16T22:41:49.045Z,99147.70
2022-11-16T22:44:16.200Z,99150.02
2022-11-16T22:46:43.435Z,99152.30
2022-11-16T22:49:10.584Z,99148.27
2022-11-16T22:51:38.787Z,99148.59
2022-11-16T22:54:07.750Z,99144.19
2022-11-16T22:56:35.316Z,99144.88
2022-11-16T22:59:03.084Z,99147.13
2022-11-16T23:01:30.241Z,99143.48
2022-11-16T23:03:57.884Z,99144.15
2022-11-16T23:06:25.241Z,99146.31
2022-11-16T23:08:52.817Z,99145.05
2022-11-16T23:11:41.359Z,99138.77
2022-11-16T23:14:30.516Z,99139.91
2022-11-16T23:16:58.288Z,99133.02
2022-11-16T23:19:45.170Z,99128.95
2022-11-16T23:22:37.649Z,99131.88
2022-11-16T23:25:25.056Z,99127.48
2022-11-16T23:28:11.155Z,99126.06
2022-11-16T23:30:38.318Z,99125.36
2022-11-16T23:33:06.178Z,99119.42
2022-11-16T23:35:33.437Z,99120.11
2022-11-16T23:38:05.500Z,99125.61
2022-11-16T23:40:40.672Z,99122.76
2022-11-16T23:43:29.284Z,99122.23
2022-11-16T23:45:57.977Z,99120.17
2022-11-16T23:48:25.638Z,99120.22
2022-11-16T23:50:52.878Z,99110.80
2022-11-16T23:53:20.024Z,99111.81
2022-11-16T23:55:48.423Z,99107.59
2022-11-16T23:58:15.753Z,99103.81
